Time;durP1;ratioP1;P1;durP2;ratioP2;P2;SDS_P1;SDS_P2;PMS_P1;PMS_P2;Temp;Humidity;BMP_temperature;BMP_pressure;BME280_temperature;BME280_humidity;BME280_pressure;Samples;Min_cycle;Max_cycle;Signal;HPM_P1;HPM_P2
2022/12/29 00:00:31;;;;;;;4.93;4.53;;;;;;;8.72;100.00;99726.03;4990783;28;20042;-82
2022/12/29 00:02:58;;;;;;;7.47;4.63;;;;;;;8.74;100.00;99708.50;4944736;28;20046;-81
2022/12/29 00:05:25;;;;;;;4.60;4.30;;;;;;;8.76;100.00;99717.25;4995306;28;20391;-81
2022/12/29 00:07:53;;;;;;;4.45;4.05;;;;;;;8.77;100.00;99722.50;4992415;28;20053;-81
2022/12/29 00:10:20;;;;;;;4.18;3.78;;;;;;;8.78;100.00;99705.84;4995761;28;20050;-81
2022/12/29 00:15:38;;;;;;;3.88;3.58;;;;;;;8.82;100.00;99711.94;4994595;28;20046;-81
2022/12/29 00:18:07;;;;;;;3.67;3.45;;;;;;;8.84;100.00;99710.16;4949596;28;20045;-81
2022/12/29 00:44:04;;;;;;;4.70;4.28;;;;;;;8.86;100.00;99697.88;4977598;28;20054;-81
2022/12/29 00:46:04;;;;;;;4.90;4.38;;;;;;;8.89;100.00;99699.63;4949907;28;20050;-82
2022/12/29 00:51:19;;;;;;;4.30;4.00;;;;;;;8.91;100.00;99680.34;4976342;28;20039;-82
2022/12/29 00:53:47;;;;;;;4.95;4.50;;;;;;;8.93;100.00;99690.84;4991580;28;20428;-80
2022/12/29 00:56:15;;;;;;;4.82;4.43;;;;;;;8.93;100.00;99673.31;4991193;28;20047;-81
2022/12/29 00:58:44;;;;;;;4.70;4.30;;;;;;;8.94;100.00;99693.47;4960700;28;20054;-81
2022/12/29 01:01:11;;;;;;;5.63;4.10;;;;;;;8.97;100.00;99674.16;4986512;28;20059;-81
2022/12/29 01:03:39;;;;;;;5.78;4.28;;;;;;;8.99;100.00;99677.66;4961652;28;20046;-82
2022/12/29 01:06:10;;;;;;;4.65;4.10;;;;;;;9.01;100.00;99667.13;4958247;28;20057;-81
2022/12/29 01:08:40;;;;;;;16.80;14.00;;;;;;;9.00;100.00;99670.63;4988239;28;20058;-81
2022/12/29 01:11:11;;;;;;;35.25;23.05;;;;;;;9.00;100.00;99666.25;4986352;28;20050;-82
2022/12/29 01:13:41;;;;;;;5.13;4.72;;;;;;;9.02;100.00;99656.59;4938706;29;20066;-81
2022/12/29 01:16:11;;;;;;;5.78;5.07;;;;;;;9.02;100.00;99661.84;4976881;28;20058;-83
2022/12/29 01:18:38;;;;;;;4.13;3.72;;;;;;;9.05;100.00;99660.94;4918744;28;20061;-82
2022/12/29 01:21:06;;;;;;;6.07;4.15;;;;;;;9.06;100.00;99660.06;4975271;28;20050;-82
2022/12/29 01:23:34;;;;;;;5.47;4.13;;;;;;;9.07;100.00;99653.91;4972676;28;20051;-82
2022/12/29 01:26:16;;;;;;;3.85;3.55;;;;;;;9.08;100.00;99656.53;4990469;28;20050;-82
2022/12/29 01:28:44;;;;;;;4.10;3.72;;;;;;;9.11;100.00;99646.00;4981304;28;20039;-81
2022/12/29 01:31:14;;;;;;;4.22;3.92;;;;;;;9.12;100.00;99642.47;4974306;28;20058;-82
2022/12/29 01:33:43;;;;;;;4.68;4.15;;;;;;;9.13;100.00;99638.97;4923982;28;20051;-82
2022/12/29 01:36:15;;;;;;;4.70;4.35;;;;;;;9.15;100.00;99649.47;4975185;28;20482;-82
2022/12/29 01:38:43;;;;;;;4.07;3.67;;;;;;;9.15;100.00;99642.47;4969548;28;20062;-81
2022/12/29 01:41:13;;;;;;;4.60;4.07;;;;;;;9.18;100.00;99642.41;4973772;28;20047;-82
2022/12/29 01:43:50;;;;;;;4.60;4.20;;;;;;;9.20;100.00;99637.13;4969287;28;20043;-82
2022/12/29 01:46:30;;;;;;;4.25;3.85;;;;;;;9.20;100.00;99629.25;4984946;28;20055;-82
2022/12/29 01:49:09;;;;;;;4.18;3.78;;;;;;;9.20;100.00;99637.13;4953501;28;20063;-82
2022/12/29 01:51:43;;;;;;;5.03;3.92;;;;;;;9.21;100.00;99625.75;4972914;28;20070;-82
2022/12/29 01:54:22;;;;;;;4.72;3.85;;;;;;;9.20;100.00;99637.13;4989224;28;20035;-82
2022/12/29 01:56:53;;;;;;;5.05;3.85;;;;;;;9.21;100.00;99624.88;4985712;28;20047;-82
2022/12/29 01:59:32;;;;;;;3.88;3.53;;;;;;;9.20;100.00;99637.13;4973779;28;20051;-81
2022/12/29 02:02:00;;;;;;;4.43;4.03;;;;;;;9.21;100.00;99631.00;4975081;28;20057;-81
2022/12/29 02:04:31;;;;;;;4.57;4.18;;;;;;;9.22;100.00;99622.22;4977566;28;20050;-81
2022/12/29 02:07:05;;;;;;;7.65;4.40;;;;;;;9.22;100.00;99624.84;4954164;28;20051;-82
2022/12/29 02:09:34;;;;;;;4.80;4.40;;;;;;;9.21;100.00;99617.88;4975384;28;20067;-82
2022/12/29 02:12:02;;;;;;;4.95;4.53;;;;;;;9.19;100.00;99611.75;4941911;28;20110;-82
2022/12/29 02:14:30;;;;;;;5.15;4.55;;;;;;;9.16;100.00;99612.63;4958528;28;20046;-81
2022/12/29 02:17:22;;;;;;;5.20;4.40;;;;;;;9.14;100.00;99610.94;4964588;28;20046;-81
2022/12/29 02:20:17;;;;;;;7.30;4.50;;;;;;;9.12;100.00;99589.06;4972607;28;20058;-82
2022/12/29 02:23:06;;;;;;;5.03;4.63;;;;;;;9.10;100.00;99590.81;4959722;28;20058;-81
2022/12/29 02:25:58;;;;;;;4.90;4.50;;;;;;;9.06;100.00;99574.22;4990742;28;20527;-81
2022/12/29 02:28:58;;;;;;;4.80;4.20;;;;;;;9.05;100.00;99577.72;4974674;28;20050;-81
2022/12/29 02:31:41;;;;;;;12.18;4.00;;;;;;;9.04;100.00;99567.25;4990852;28;20043;-81
2022/12/29 02:34:24;;;;;;;4.05;3.65;;;;;;;9.02;100.00;99569.88;4991553;28;20039;-81
2022/12/29 02:37:15;;;;;;;4.43;3.45;;;;;;;9.03;100.00;99573.38;4929390;28;22741;-81
2022/12/29 02:40:05;;;;;;;3.72;3.42;;;;;;;9.04;100.00;99567.25;4979506;28;20054;-81
2022/12/29 02:42:52;;;;;;;5.38;3.85;;;;;;;9.06;100.00;99552.34;4988215;28;20058;-81
2022/12/29 02:45:30;;;;;;;4.07;3.78;;;;;;;9.05;100.00;99553.22;4974973;28;20121;-81
2022/12/29 02:48:29;;;;;;;5.72;3.40;;;;;;;9.07;100.00;99551.44;4976508;28;20047;-81
2022/12/29 02:51:08;;;;;;;3.10;2.90;;;;;;;9.09;100.00;99545.28;4992686;28;20074;-81
2022/12/29 02:56:23;;;;;;;3.08;2.88;;;;;;;9.13;100.00;99559.25;4983690;28;20058;-81
2022/12/29 02:58:52;;;;;;;5.82;3.50;;;;;;;9.14;100.00;99555.75;4993204;28;20038;-81
2022/12/29 03:02:16;;;;;;;2.80;2.60;;;;;;;9.14;100.00;99542.59;4980534;28;20043;-82
2022/12/29 03:05:14;;;;;;;4.35;3.40;;;;;;;9.12;100.00;99547.88;4956664;28;20050;-81
2022/12/29 03:08:03;;;;;;;3.63;3.30;;;;;;;9.12;100.00;99553.13;4963684;28;20065;-81
2022/12/29 03:11:05;;;;;;;3.70;3.40;;;;;;;9.11;100.00;99547.88;4981999;28;20050;-80
2022/12/29 03:16:49;;;;;;;3.40;3.05;;;;;;;9.08;100.00;99542.69;4994054;28;20058;-81
2022/12/29 03:19:30;;;;;;;4.07;3.10;;;;;;;9.10;100.00;99543.53;4987117;28;20069;-81
2022/12/29 03:25:15;;;;;;;2.83;2.50;;;;;;;9.11;100.00;99555.75;4982492;28;20046;-81
2022/12/29 03:27:51;;;;;;;2.75;2.47;;;;;;;9.10;100.00;99552.28;4990571;28;20054;-81
2022/12/29 03:30:20;;;;;;;4.03;2.20;;;;;;;9.11;100.00;99559.28;4978939;28;20050;-81
2022/12/29 03:32:59;;;;;;;2.75;2.40;;;;;;;9.11;100.00;99545.25;4974972;28;20057;-81
2022/12/29 03:35:33;;;;;;;3.25;2.45;;;;;;;9.08;100.00;99543.53;4996041;28;20043;-81
2022/12/29 03:38:11;;;;;;;2.53;1.98;;;;;;;9.10;100.00;99533.88;4969882;28;20050;-81
2022/12/29 03:40:42;;;;;;;2.10;1.98;;;;;;;9.11;100.00;99535.63;4944067;28;20043;-80
2022/12/29 03:43:12;;;;;;;2.65;1.90;;;;;;;9.12;100.00;99539.13;4991817;28;20053;-81
2022/12/29 03:45:41;;;;;;;1.98;1.73;;;;;;;9.12;100.00;99536.50;5008655;28;20046;-81
2022/12/29 03:48:09;;;;;;;2.50;1.67;;;;;;;9.12;100.00;99531.22;4992100;28;20046;-81
2022/12/29 03:50:40;;;;;;;2.40;1.50;;;;;;;9.11;100.00;99550.50;4973490;28;20061;-81
2022/12/29 03:53:08;;;;;;;4.10;1.50;;;;;;;9.08;100.00;99547.94;4973334;28;20054;-81
2022/12/29 03:55:37;;;;;;;3.05;1.40;;;;;;;9.06;100.00;99549.72;4972340;28;20050;-81
2022/12/29 03:58:05;;;;;;;4.57;1.40;;;;;;;9.02;100.00;99550.59;4942247;28;20051;-81
2022/12/29 04:00:58;;;;;;;3.00;1.60;;;;;;;8.98;100.00;99545.41;4973614;28;20065;-81
2022/12/29 04:03:26;;;;;;;1.85;1.38;;;;;;;8.94;100.00;99537.56;4955162;28;20055;-81
2022/12/29 04:05:54;;;;;;;4.57;1.15;;;;;;;8.92;100.00;99540.22;4948574;28;20059;-81
2022/12/29 04:08:22;;;;;;;1.75;1.30;;;;;;;8.88;100.00;99533.25;4958023;28;20063;-80
2022/12/29 04:10:50;;;;;;;1.65;1.15;;;;;;;8.87;100.00;99542.03;4930609;28;20051;-81
2022/12/29 04:13:22;;;;;;;2.72;1.27;;;;;;;8.83;100.00;99544.69;4947540;28;20436;-81
2022/12/29 04:15:51;;;;;;;2.95;1.40;;;;;;;8.81;100.00;99536.84;4993675;28;20051;-81
2022/12/29 04:18:20;;;;;;;4.15;1.52;;;;;;;8.82;100.00;99548.22;4984397;28;20054;-81
2022/12/29 04:21:00;;;;;;;1.67;1.42;;;;;;;8.84;100.00;99535.94;4970955;28;20039;-81
2022/12/29 04:23:33;;;;;;;1.52;1.42;;;;;;;8.86;100.00;99542.03;4954750;28;20055;-82
2022/12/29 04:26:06;;;;;;;2.22;1.40;;;;;;;8.86;100.00;99542.91;4924952;28;20059;-82
2022/12/29 04:28:38;;;;;;;1.95;1.52;;;;;;;8.87;100.00;99528.03;4972965;28;20046;-81
2022/12/29 04:31:31;;;;;;;2.08;1.55;;;;;;;8.89;100.00;99535.00;4976187;28;20062;-81
2022/12/29 04:33:59;;;;;;;1.92;1.30;;;;;;;8.91;100.00;99538.47;4974250;28;20039;-81
2022/12/29 04:36:28;;;;;;;2.13;1.40;;;;;;;8.92;100.00;99536.69;4959436;28;20054;-81
2022/12/29 04:38:57;;;;;;;4.55;1.75;;;;;;;8.94;100.00;99546.34;4971159;28;20062;-81
2022/12/29 04:41:24;;;;;;;1.17;1.17;;;;;;;8.94;100.00;99543.69;4948138;28;20041;-81
2022/12/29 04:43:52;;;;;;;2.20;1.60;;;;;;;8.95;100.00;99548.06;4990306;28;20055;-82
2022/12/29 04:46:38;;;;;;;2.53;1.40;;;;;;;9.01;100.00;99569.91;4972751;28;20062;-81
2022/12/29 04:49:17;;;;;;;1.75;1.30;;;;;;;9.04;100.00;99569.88;4959398;28;20059;-81
2022/12/29 04:51:55;;;;;;;4.78;1.90;;;;;;;9.05;100.00;99568.97;4957312;28;20055;-80
2022/12/29 04:54:24;;;;;;;3.90;1.10;;;;;;;9.03;100.00;99570.75;4967058;28;20057;-82
2022/12/29 04:57:03;;;;;;;2.40;1.15;;;;;;;9.02;100.00;99571.63;4942803;28;20058;-81
2022/12/29 04:59:38;;;;;;;4.10;1.15;;;;;;;9.03;100.00;99569.00;4982400;28;20057;-81
2022/12/29 05:02:07;;;;;;;4.03;1.20;;;;;;;9.04;100.00;99569.88;4991259;28;20496;-81
2022/12/29 05:04:35;;;;;;;4.68;1.90;;;;;;;9.06;100.00;99568.09;4975505;28;20515;-81
2022/12/29 05:07:03;;;;;;;2.85;0.95;;;;;;;9.06;100.00;99571.59;4991154;28;20816;-82
2022/12/29 05:09:30;;;;;;;6.65;1.38;;;;;;;9.06;100.00;99573.34;4983804;28;20069;-80
2022/12/29 05:12:01;;;;;;;3.08;1.20;;;;;;;9.03;100.00;99569.00;4946274;28;20057;-81
2022/12/29 05:14:30;;;;;;;4.95;1.35;;;;;;;9.00;100.00;99583.91;4983309;28;20069;-81
2022/12/29 05:16:59;;;;;;;6.32;1.55;;;;;;;8.94;100.00;99571.72;4984875;28;20054;-81
2022/12/29 05:19:28;;;;;;;4.25;1.42;;;;;;;8.90;100.00;99567.38;4992940;28;20057;-80
2022/12/29 05:21:55;;;;;;;6.05;1.30;;;;;;;8.86;100.00;99573.56;4970539;28;20054;-81
2022/12/29 05:24:23;;;;;;;7.07;1.90;;;;;;;8.83;100.00;99573.56;4980477;28;20053;-81
2022/12/29 05:26:55;;;;;;;6.65;1.58;;;;;;;8.79;100.00;99570.13;4974377;28;20045;-81
2022/12/29 05:29:42;;;;;;;6.30;1.40;;;;;;;8.74;100.00;99574.56;4948689;28;20081;-80
2022/12/29 05:32:09;;;;;;;9.27;2.05;;;;;;;8.74;100.00;99579.81;4966893;28;20051;-81
2022/12/29 05:34:37;;;;;;;9.90;1.95;;;;;;;8.72;100.00;99586.84;4986030;28;20050;-80
2022/12/29 05:37:04;;;;;;;7.07;2.40;;;;;;;8.68;100.00;99580.75;4969948;28;20057;-81
2022/12/29 05:39:32;;;;;;;14.48;2.28;;;;;;;8.65;100.00;99585.16;4979042;28;20054;-81
2022/12/29 05:42:02;;;;;;;6.00;2.17;;;;;;;8.61;100.00;99591.31;4960247;28;20043;-81
2022/12/29 05:44:45;;;;;;;12.07;2.17;;;;;;;8.56;100.00;99583.47;4943839;28;20054;-81
2022/12/29 05:47:30;;;;;;;6.07;1.80;;;;;;;8.52;100.00;99579.13;4973627;28;20065;-81
2022/12/29 05:50:10;;;;;;;7.82;1.70;;;;;;;8.48;100.00;99590.53;5004586;28;20050;-81
2022/12/29 05:52:58;;;;;;;6.85;1.83;;;;;;;8.44;100.00;99586.22;4987545;28;20455;-81
2022/12/29 05:55:27;;;;;;;8.05;1.58;;;;;;;8.40;100.00;99585.31;4968568;28;20400;-80
2022/12/29 05:57:56;;;;;;;9.43;2.00;;;;;;;8.39;100.00;99584.47;4972172;28;20499;-80
2022/12/29 06:00:30;;;;;;;6.00;1.80;;;;;;;8.38;100.00;99580.09;4962380;28;20043;-80
2022/12/29 06:02:58;;;;;;;7.57;1.70;;;;;;;8.37;100.00;99591.47;5004239;28;20038;-81
2022/12/29 06:05:26;;;;;;;9.68;1.58;;;;;;;8.37;100.00;99596.72;4978926;28;20042;-81
2022/12/29 06:07:53;;;;;;;4.70;1.75;;;;;;;8.38;100.00;99601.09;4987668;28;20451;-81
2022/12/29 06:10:22;;;;;;;6.95;2.15;;;;;;;8.39;100.00;99597.59;4986968;28;20046;-81
2022/12/29 06:13:00;;;;;;;9.02;2.00;;;;;;;8.40;100.00;99603.69;4989779;28;20054;-81
2022/12/29 06:15:31;;;;;;;;;;;;;;;8.41;100.00;99592.31;4981585;28;20087;-81
2022/12/29 06:18:00;;;;;;;5.45;1.90;;;;;;;8.43;100.00;99608.06;4993023;28;20606;-81
2022/12/29 06:20:28;;;;;;;8.60;1.73;;;;;;;8.41;100.00;99594.94;4980576;28;20049;-81
2022/12/29 06:22:56;;;;;;;9.77;1.88;;;;;;;8.38;100.00;99606.34;4967021;28;20062;-80
2022/12/29 06:25:23;;;;;;;7.13;1.88;;;;;;;8.37;100.00;99604.59;5005349;28;20055;-80
2022/12/29 06:27:51;;;;;;;12.50;2.08;;;;;;;8.37;100.00;99593.22;4966130;28;20058;-80
2022/12/29 06:30:19;;;;;;;14.90;2.33;;;;;;;8.43;100.00;99597.56;4978776;28;20476;-81
2022/12/29 06:32:47;;;;;;;9.38;2.35;;;;;;;8.47;100.00;99612.41;4960093;28;20435;-81
2022/12/29 06:35:15;;;;;;;11.45;2.13;;;;;;;8.46;100.00;99614.19;4980096;28;20662;-81
2022/12/29 06:37:49;;;;;;;8.30;1.98;;;;;;;8.46;100.00;99608.94;4992731;28;20058;-80
2022/12/29 06:40:18;;;;;;;11.20;1.90;;;;;;;8.46;100.00;99611.56;4966338;28;20043;-80
2022/12/29 06:43:08;;;;;;;9.55;2.60;;;;;;;8.49;100.00;99613.31;4992075;28;20058;-80
2022/12/29 06:45:55;;;;;;;11.93;2.83;;;;;;;8.48;100.00;99615.03;4992856;28;20051;-81
2022/12/29 06:48:23;;;;;;;8.18;1.80;;;;;;;8.46;100.00;99614.19;4961844;28;20053;-80
2022/12/29 06:50:50;;;;;;;6.80;1.88;;;;;;;8.42;100.00;99622.09;5001354;28;20050;-80
2022/12/29 06:53:18;;;;;;;9.30;2.22;;;;;;;8.38;100.00;99619.47;4978373;28;20073;-80
2022/12/29 06:55:45;;;;;;;10.95;2.60;;;;;;;8.35;100.00;99615.97;4986646;28;20050;-81
2022/12/29 06:58:12;;;;;;;12.05;2.25;;;;;;;8.28;100.00;99615.16;4974374;28;20047;-81
2022/12/29 07:00:40;;;;;;;8.75;2.30;;;;;;;8.26;100.00;99610.78;4975821;28;20054;-81
2022/12/29 07:03:07;;;;;;;6.18;1.85;;;;;;;8.22;100.00;99603.84;4942306;28;20058;-80
2022/12/29 07:05:36;;;;;;;7.72;2.00;;;;;;;8.18;100.00;99613.47;4994818;28;20495;-80
2022/12/29 07:08:04;;;;;;;6.70;2.08;;;;;;;8.15;100.00;99618.75;4992002;28;20050;-80
2022/12/29 07:10:31;;;;;;;12.75;2.97;;;;;;;8.15;100.00;99626.63;4995425;28;20054;-80
2022/12/29 07:12:59;;;;;;;13.50;3.13;;;;;;;8.12;100.00;99614.38;4983164;28;20055;-80
2022/12/29 07:15:26;;;;;;;7.40;2.17;;;;;;;8.11;100.00;99620.53;4990384;28;20057;-80
2022/12/29 07:17:53;;;;;;;13.55;2.42;;;;;;;8.12;100.00;99621.41;4951482;28;20054;-81
2022/12/29 07:20:21;;;;;;;8.57;2.08;;;;;;;8.08;100.00;99615.28;4994542;28;20050;-80
2022/12/29 07:22:53;;;;;;;9.38;2.50;;;;;;;8.09;100.00;99624.91;4991710;28;20054;-82
2022/12/29 07:25:21;;;;;;;12.90;2.58;;;;;;;8.07;100.00;99631.94;4975875;28;20404;-83
2022/12/29 07:27:49;;;;;;;7.13;1.90;;;;;;;8.06;100.00;99613.56;4967061;28;20419;-83
2022/12/29 07:30:16;;;;;;;6.40;2.30;;;;;;;8.06;100.00;99619.69;4976793;28;20047;-80
2022/12/29 07:32:44;;;;;;;6.55;2.13;;;;;;;8.08;100.00;99631.03;4966732;28;20050;-80
2022/12/29 07:35:11;;;;;;;10.77;1.98;;;;;;;8.09;100.00;99631.91;4967377;28;20053;-82
2022/12/29 07:37:38;;;;;;;10.77;2.80;;;;;;;8.08;100.00;99633.66;4991952;28;20051;-82
2022/12/29 07:40:06;;;;;;;11.93;3.20;;;;;;;8.09;100.00;99630.16;4993295;28;20042;-82
2022/12/29 07:42:34;;;;;;;8.80;2.78;;;;;;;8.10;100.00;99629.28;4993395;28;20046;-79
2022/12/29 07:45:01;;;;;;;11.63;2.78;;;;;;;8.13;100.00;99628.41;4958221;28;20051;-82
2022/12/29 07:47:49;;;;;;;8.80;2.17;;;;;;;8.15;100.00;99642.38;4946244;28;20049;-82
2022/12/29 07:50:17;;;;;;;10.98;2.55;;;;;;;8.16;100.00;99642.34;5003152;28;20510;-82
2022/12/29 07:52:46;;;;;;;9.88;2.55;;;;;;;8.18;100.00;99632.75;4991631;28;20038;-82
2022/12/29 07:55:15;;;;;;;8.25;1.75;;;;;;;8.21;100.00;99650.22;4993750;28;20058;-79
2022/12/29 07:57:43;;;;;;;5.65;1.80;;;;;;;8.26;100.00;99645.81;4989749;28;20065;-82
2022/12/29 08:00:10;;;;;;;10.32;2.03;;;;;;;8.29;100.00;99652.78;4968402;28;20069;-82
2022/12/29 08:02:38;;;;;;;12.65;2.28;;;;;;;8.32;100.00;99644.91;4992491;28;20061;-81
2022/12/29 08:05:05;;;;;;;16.77;3.80;;;;;;;8.35;100.00;99655.34;4955988;28;20049;-82
2022/12/29 08:07:33;;;;;;;13.90;2.60;;;;;;;8.35;100.00;99664.09;4993425;28;20042;-82
2022/12/29 08:10:01;;;;;;;8.25;2.00;;;;;;;8.36;100.00;99665.00;4970189;28;20061;-82
2022/12/29 08:12:28;;;;;;;9.02;3.30;;;;;;;8.37;100.00;99662.34;4986513;28;20042;-82
2022/12/29 08:14:55;;;;;;;7.85;1.80;;;;;;;8.37;100.00;99666.72;4988968;28;20049;-81
2022/12/29 08:17:23;;;;;;;16.73;3.10;;;;;;;8.38;100.00;99676.34;4966560;28;20046;-82
2022/12/29 08:19:50;;;;;;;12.05;2.45;;;;;;;8.37;100.00;99666.72;4939786;28;20513;-79
2022/12/29 08:22:19;;;;;;;13.65;2.85;;;;;;;8.32;100.00;99661.50;4994219;28;20366;-82
2022/12/29 08:24:46;;;;;;;22.48;3.38;;;;;;;8.30;100.00;99671.16;4989471;28;20050;-81
2022/12/29 08:27:14;;;;;;;10.45;2.25;;;;;;;8.25;100.00;99672.91;4992433;28;20039;-82
2022/12/29 08:29:47;;;;;;;15.07;2.85;;;;;;;8.23;100.00;99658.06;4989913;28;20053;-82
2022/12/29 08:32:16;;;;;;;12.88;2.42;;;;;;;8.24;100.00;99667.69;4983133;28;20038;-82
2022/12/29 08:34:43;;;;;;;8.57;2.33;;;;;;;8.25;100.00;99669.44;4991173;28;20106;-81
2022/12/29 08:37:10;;;;;;;14.23;2.83;;;;;;;8.25;100.00;99672.06;4969979;28;20054;-81
2022/12/29 08:39:38;;;;;;;13.13;2.42;;;;;;;8.24;100.00;99672.91;4995499;28;20038;-81
2022/12/29 08:42:06;;;;;;;10.55;2.20;;;;;;;8.22;100.00;99672.94;4971773;28;20420;-82
2022/12/29 08:44:33;;;;;;;11.18;2.20;;;;;;;8.24;100.00;99659.81;4971495;28;20528;-82
2022/12/29 08:47:01;;;;;;;12.65;3.00;;;;;;;8.28;100.00;99672.03;4983144;28;22995;-82
2022/12/29 08:49:29;;;;;;;11.63;2.80;;;;;;;8.30;100.00;99670.25;4942579;28;20053;-82
2022/12/29 08:51:57;;;;;;;12.57;2.83;;;;;;;8.29;100.00;99674.63;4958590;28;20057;-82
2022/12/29 08:54:24;;;;;;;13.13;3.03;;;;;;;8.32;100.00;99681.66;4975435;28;20419;-81
2022/12/29 08:56:53;;;;;;;16.20;3.25;;;;;;;8.29;100.00;99673.78;4962910;28;20043;-81
2022/12/29 08:59:25;;;;;;;19.20;3.65;;;;;;;8.24;100.00;99681.69;4974265;28;20065;-81
2022/12/29 09:01:53;;;;;;;16.05;3.13;;;;;;;8.20;100.00;99672.97;4965844;28;20054;-82
2022/12/29 09:04:20;;;;;;;9.45;2.10;;;;;;;8.15;100.00;99673.88;4992351;28;20042;-81
2022/12/29 09:06:49;;;;;;;21.73;3.28;;;;;;;8.10;100.00;99688.75;4973081;28;20433;-81
2022/12/29 09:09:17;;;;;;;18.02;3.78;;;;;;;8.06;100.00;99674.78;4956315;28;20526;-82
2022/12/29 09:11:45;;;;;;;15.70;2.72;;;;;;;8.05;100.00;99670.41;4972452;28;20057;-81
2022/12/29 09:14:13;;;;;;;16.02;3.35;;;;;;;8.05;100.00;99670.41;5008141;28;20763;-81
2022/12/29 09:19:26;;;;;;;13.18;3.20;;;;;;;8.05;100.00;99674.78;4973336;28;20058;-81
2022/12/29 09:21:54;;;;;;;14.23;2.70;;;;;;;8.09;100.00;99676.50;4990458;28;20058;-82
2022/12/29 09:24:21;;;;;;;17.10;2.88;;;;;;;8.11;100.00;99670.38;4954776;28;20050;-81
2022/12/29 09:26:49;;;;;;;19.20;2.90;;;;;;;8.13;100.00;99676.50;4956714;28;20038;-80
2022/12/29 09:29:16;;;;;;;16.30;3.30;;;;;;;8.15;100.00;99682.59;4991565;28;20050;-82
2022/12/29 09:31:43;;;;;;;14.57;3.10;;;;;;;8.15;100.00;99681.75;4974594;28;20053;-81
2022/12/29 09:34:11;;;;;;;19.10;3.33;;;;;;;8.13;100.00;99673.00;4967437;28;20076;-81
2022/12/29 09:36:38;;;;;;;21.02;3.45;;;;;;;8.11;100.00;99678.25;4987710;28;20069;-81
2022/12/29 09:39:06;;;;;;;15.18;3.50;;;;;;;8.10;100.00;99679.13;4943401;28;20062;-81
2022/12/29 09:41:45;;;;;;;13.05;3.05;;;;;;;8.12;100.00;99684.38;4962155;28;20054;-81
2022/12/29 09:44:21;;;;;;;15.90;3.08;;;;;;;8.12;100.00;99697.50;5006391;28;20042;-81
2022/12/29 09:46:52;;;;;;;11.85;2.28;;;;;;;8.15;100.00;99693.09;4953567;28;20058;-81
2022/12/29 09:49:32;;;;;;;12.02;4.05;;;;;;;8.16;100.00;99705.31;4958307;28;20058;-81
2022/12/29 09:52:12;;;;;;;17.83;2.92;;;;;;;8.19;100.00;99699.22;4980106;28;20039;-81
2022/12/29 09:54:52;;;;;;;8.05;2.75;;;;;;;8.17;100.00;99696.59;4978715;28;20030;-81
2022/12/29 09:57:42;;;;;;;14.13;2.50;;;;;;;8.19;100.00;99697.44;4981157;28;20046;-81
2022/12/29 10:00:09;;;;;;;15.65;3.28;;;;;;;8.23;100.00;99700.06;4988560;28;20046;-82
2022/12/29 10:02:56;;;;;;;15.13;3.50;;;;;;;8.24;100.00;99713.19;4994593;28;20046;-81
2022/12/29 10:05:38;;;;;;;14.38;3.42;;;;;;;8.23;100.00;99702.69;4968837;28;20054;-81
2022/12/29 10:08:14;;;;;;;15.48;2.60;;;;;;;8.23;100.00;99686.94;4992394;28;20039;-81
2022/12/29 10:10:46;;;;;;;14.05;2.70;;;;;;;8.24;100.00;99701.78;4959253;28;20050;-81
2022/12/29 10:13:21;;;;;;;9.48;2.17;;;;;;;8.23;100.00;99690.44;4978401;28;20053;-81
2022/12/29 10:16:03;;;;;;;8.70;2.55;;;;;;;8.25;100.00;99677.31;4971589;28;20065;-81
2022/12/29 10:18:52;;;;;;;10.35;2.53;;;;;;;8.26;100.00;99695.69;4977345;28;20043;-82
2022/12/29 10:21:26;;;;;;;10.30;2.40;;;;;;;8.24;100.00;99694.81;4974231;28;20054;-81
2022/12/29 10:23:54;;;;;;;8.38;2.67;;;;;;;8.22;100.00;99708.81;4992288;28;20066;-82
2022/12/29 10:26:31;;;;;;;14.57;2.60;;;;;;;8.18;100.00;99706.22;4944950;28;20046;-81
2022/12/29 10:29:13;;;;;;;17.25;2.83;;;;;;;8.17;100.00;99712.34;4960304;28;20070;-81
2022/12/29 10:31:50;;;;;;;12.00;2.40;;;;;;;8.16;100.00;99717.59;4992674;28;20388;-82
2022/12/29 10:34:36;;;;;;;6.57;1.70;;;;;;;8.11;100.00;99733.38;4992613;28;20049;-81
2022/12/29 10:37:15;;;;;;;9.95;2.40;;;;;;;8.06;100.00;99742.13;4964327;28;20458;-81
2022/12/29 10:39:45;;;;;;;9.57;2.10;;;;;;;8.03;100.00;99740.38;4974675;28;20467;-81
2022/12/29 10:42:23;;;;;;;8.40;2.10;;;;;;;7.98;100.00;99744.78;4941157;28;20047;-82
2022/12/29 10:44:53;;;;;;;7.35;2.08;;;;;;;7.95;100.00;99742.16;4975789;28;20051;-81
2022/12/29 10:47:25;;;;;;;8.57;1.73;;;;;;;7.90;100.00;99754.41;4978981;28;20046;-81
2022/12/29 10:49:54;;;;;;;8.05;2.00;;;;;;;7.88;100.00;99764.03;4984769;28;20504;-81
2022/12/29 10:52:23;;;;;;;14.55;1.92;;;;;;;7.84;100.00;99775.44;4996637;28;20039;-83
2022/12/29 10:54:50;;;;;;;13.43;2.10;;;;;;;7.80;100.00;99783.28;4984775;28;20030;-83
2022/12/29 10:57:23;;;;;;;8.05;2.47;;;;;;;7.77;100.00;99785.09;4963678;28;20053;-82
2022/12/29 10:59:51;;;;;;;12.18;2.33;;;;;;;7.75;100.00;99781.56;4977378;28;20060;-83
2022/12/29 11:02:47;;;;;;;11.18;2.40;;;;;;;7.73;100.00;99793.81;4962127;28;20046;-81
2022/12/29 11:05:28;;;;;;;11.30;2.25;;;;;;;7.71;100.00;99808.66;4992314;28;20046;-81
2022/12/29 11:08:01;;;;;;;7.45;1.80;;;;;;;7.71;100.00;99799.06;4988775;28;20046;-81
2022/12/29 11:10:40;;;;;;;5.95;1.67;;;;;;;7.72;100.00;99795.56;4994353;28;20037;-81
2022/12/29 11:13:17;;;;;;;10.75;2.83;;;;;;;7.74;100.00;99803.44;4961671;28;20047;-82
2022/12/29 11:15:50;;;;;;;10.43;2.40;;;;;;;7.78;100.00;99818.28;4974786;28;20070;-81
2022/12/29 11:18:26;;;;;;;11.35;2.60;;;;;;;7.79;100.00;99818.28;4969528;28;20034;-82
2022/12/29 11:21:00;;;;;;;13.38;2.65;;;;;;;7.80;100.00;99822.63;4987856;28;20046;-81
2022/12/29 11:23:41;;;;;;;12.85;2.80;;;;;;;7.83;100.00;99828.78;4992080;28;20053;-81
2022/12/29 11:26:21;;;;;;;21.08;3.85;;;;;;;7.86;100.00;99820.88;4977225;28;20578;-81
2022/12/29 11:29:07;;;;;;;8.98;2.50;;;;;;;7.90;100.00;99830.50;4948417;28;20111;-81
2022/12/29 11:31:49;;;;;;;18.83;3.22;;;;;;;7.94;100.00;99835.75;4993597;28;20054;-82
2022/12/29 11:34:25;;;;;;;16.25;3.10;;;;;;;7.98;100.00;99832.22;4978622;28;20779;-81
2022/12/29 11:37:00;;;;;;;22.50;4.07;;;;;;;8.02;100.00;99830.47;4982708;28;20607;-81
2022/12/29 11:39:52;;;;;;;18.77;3.05;;;;;;;8.07;100.00;99846.19;4978371;28;20050;-81
2022/12/29 11:42:28;;;;;;;14.90;2.92;;;;;;;8.10;100.00;99849.69;4978017;28;20400;-81
2022/12/29 11:44:55;;;;;;;22.30;3.20;;;;;;;8.12;100.00;99847.94;4919540;28;20407;-81
2022/12/29 11:47:30;;;;;;;13.30;2.60;;;;;;;8.15;100.00;99858.44;4967548;28;20058;-81
2022/12/29 11:50:04;;;;;;;15.48;3.38;;;;;;;8.17;100.00;99867.16;4994751;28;20030;-81
2022/12/29 11:52:35;;;;;;;15.02;3.25;;;;;;;8.20;100.00;99868.91;4965609;28;20048;-81
2022/12/29 11:55:07;;;;;;;15.10;3.00;;;;;;;8.22;100.00;99869.75;4983777;28;20047;-81
2022/12/29 11:57:35;;;;;;;17.98;2.90;;;;;;;8.23;100.00;99874.16;4978116;28;20059;-81
2022/12/29 12:00:15;;;;;;;18.75;3.83;;;;;;;8.26;100.00;99879.41;4951689;28;20057;-81
2022/12/29 12:02:52;;;;;;;15.45;3.03;;;;;;;8.26;100.00;99882.03;4963409;28;20459;-81
2022/12/29 12:05:56;;;;;;;15.45;3.38;;;;;;;8.28;100.00;99898.63;4994923;28;20492;-81
2022/12/29 12:08:41;;;;;;;11.52;3.08;;;;;;;8.27;100.00;99894.25;4958436;28;20050;-81
2022/12/29 12:11:21;;;;;;;18.70;3.80;;;;;;;8.31;100.00;99898.59;4965246;28;20043;-81
2022/12/29 12:14:06;;;;;;;19.00;3.05;;;;;;;8.34;100.00;99890.75;4993389;28;20045;-81
2022/12/29 12:16:59;;;;;;;19.50;3.47;;;;;;;8.38;100.00;99899.47;4980431;28;20046;-81
2022/12/29 12:19:46;;;;;;;13.65;3.25;;;;;;;8.39;100.00;99901.22;4993169;28;20054;-81
2022/12/29 12:22:20;;;;;;;16.85;2.70;;;;;;;8.35;100.00;99905.59;4967957;28;20057;-81
2022/12/29 12:25:16;;;;;;;19.60;3.42;;;;;;;8.34;100.00;99921.38;4992200;28;20042;-81
2022/12/29 12:27:51;;;;;;;23.60;3.72;;;;;;;8.29;100.00;99915.25;4993298;28;20050;-81
2022/12/29 12:30:22;;;;;;;17.58;3.58;;;;;;;8.25;100.00;99921.38;4944763;28;20500;-81
2022/12/29 12:33:37;;;;;;;13.15;2.83;;;;;;;8.18;100.00;99931.91;4960285;28;20055;-81
2022/12/29 12:36:22;;;;;;;12.88;2.60;;;;;;;8.13;100.00;99941.53;4974473;28;20544;-81
2022/12/29 12:39:11;;;;;;;17.38;3.22;;;;;;;8.09;100.00;99942.41;4974550;28;20046;-80